Fethiye, Turkey
Current Conditions -  °F | °C
As of 11:20 AM on Saturday 25 Oct 2014 (Local Time) from LTBS Reporting Station
Broken Clouds Broken Clouds  
Wind Chill: 70°   Ceiling: 9000
Heat Index: 70°   Visibility: 6mi
Dew Point: 63°   Wind: 3mph
Humidity: 78%   Direction: 100°E
Pressure: 29.88"   Gusts: NA
Location:  36.62°N, 29.11°E
Report Text: LTBS 250820Z 10003KT 070V130 9999 SCT030 BKN090 21/17 Q1012 BECMG 22013KT
Loading
Personal Weather Stations






























Interactive Weather Map
Tropical Storm Tracking
New forecast layout! Learn more

10-Day Weather Forecast

Advertisements
Track Severe Weather on mobile